createdAt,value
2022-10-03T00:01:36.591Z,19.27
2022-10-03T00:04:21.650Z,20.33
2022-10-03T00:07:33.827Z,19.10
2022-10-03T00:10:14.283Z,19.90
2022-10-03T00:13:05.732Z,20.27
2022-10-03T00:15:47.441Z,17.77
2022-10-03T00:18:41.912Z,18.47
2022-10-03T00:21:44.755Z,17.43
2022-10-03T00:24:31.587Z,20.50
2022-10-03T00:27:49.002Z,20.47
2022-10-03T00:30:24.660Z,18.20
2022-10-03T00:33:22.346Z,18.13
2022-10-03T00:36:07.178Z,20.40
2022-10-03T00:39:02.547Z,20.40
2022-10-03T00:41:38.237Z,20.90
2022-10-03T00:44:13.990Z,19.63
2022-10-03T00:46:49.745Z,18.13
2022-10-03T00:49:34.994Z,21.83
2022-10-03T00:52:04.607Z,23.97
2022-10-03T00:54:45.358Z,19.60
2022-10-03T00:57:34.047Z,18.73
2022-10-03T01:00:07.641Z,17.13
2022-10-03T01:02:47.742Z,21.33
2022-10-03T01:05:35.981Z,19.17
2022-10-03T01:08:48.818Z,18.10
2022-10-03T01:11:30.358Z,17.83
2022-10-03T01:14:09.891Z,19.60
2022-10-03T01:16:57.296Z,17.67
2022-10-03T01:20:00.175Z,20.07
2022-10-03T01:23:01.594Z,20.77
2022-10-03T01:25:47.131Z,23.10
2022-10-03T01:28:41.519Z,18.27
2022-10-03T01:31:13.897Z,20.43
2022-10-03T01:33:46.728Z,21.40
2022-10-03T01:36:25.334Z,20.33
2022-10-03T01:39:11.839Z,21.80
2022-10-03T01:42:12.291Z,21.03
2022-10-03T01:45:01.722Z,17.83
2022-10-03T01:47:51.602Z,22.30
2022-10-03T01:50:38.615Z,22.57
2022-10-03T01:53:18.983Z,19.53
2022-10-03T01:55:59.224Z,26.17
2022-10-03T01:58:36.388Z,18.87
2022-10-03T02:01:28.155Z,19.70
2022-10-03T02:04:04.409Z,20.70
2022-10-03T02:06:50.226Z,19.90
2022-10-03T02:09:28.386Z,17.73
2022-10-03T02:12:07.666Z,21.23
2022-10-03T02:14:46.992Z,17.03
2022-10-03T02:17:49.239Z,19.30
2022-10-03T02:20:29.331Z,18.17
2022-10-03T02:23:00.763Z,20.57
2022-10-03T02:25:36.173Z,15.63
2022-10-03T02:28:47.759Z,15.10
2022-10-03T02:31:48.074Z,16.53
2022-10-03T02:34:46.755Z,19.07
2022-10-03T02:37:37.151Z,15.77
2022-10-03T02:40:10.378Z,17.00
2022-10-03T02:42:59.573Z,15.43
2022-10-03T02:46:03.338Z,17.03
2022-10-03T02:49:04.400Z,16.13
2022-10-03T02:51:59.748Z,17.83
2022-10-03T02:54:44.409Z,16.37
2022-10-03T02:57:16.559Z,16.70
2022-10-03T03:00:07.711Z,14.97
2022-10-03T03:02:42.529Z,15.13
2022-10-03T03:05:22.645Z,14.97
2022-10-03T03:08:26.346Z,15.80
2022-10-03T03:11:12.495Z,19.83
2022-10-03T03:14:16.642Z,13.63
2022-10-03T03:16:55.874Z,15.33
2022-10-03T03:19:44.019Z,16.13
2022-10-03T03:22:32.974Z,14.73
2022-10-03T03:25:21.617Z,14.50
2022-10-03T03:28:07.745Z,13.13
2022-10-03T03:30:45.957Z,12.83
2022-10-03T03:33:33.515Z,15.50
2022-10-03T03:36:17.410Z,13.90
2022-10-03T03:38:53.886Z,12.97
2022-10-03T03:41:31.119Z,17.30
2022-10-03T03:44:12.599Z,13.87
2022-10-03T03:47:30.338Z,13.93
2022-10-03T03:50:15.017Z,14.47
2022-10-03T03:53:04.661Z,14.57
2022-10-03T03:56:04.351Z,12.80
2022-10-03T03:58:38.059Z,12.07
2022-10-03T04:01:16.731Z,13.77
2022-10-03T04:04:05.151Z,12.43
2022-10-03T04:06:56.603Z,12.50
2022-10-03T04:09:39.055Z,15.27
2022-10-03T04:12:09.498Z,13.50
2022-10-03T04:15:07.393Z,13.80
2022-10-03T04:18:25.320Z,13.20
2022-10-03T04:21:07.138Z,12.77
2022-10-03T04:24:22.082Z,13.73
2022-10-03T04:27:28.946Z,13.00
2022-10-03T04:30:16.705Z,15.23
2022-10-03T04:33:25.517Z,15.93
2022-10-03T04:36:27.513Z,14.33
2022-10-03T04:39:20.943Z,12.60
2022-10-03T04:42:06.273Z,15.03
2022-10-03T04:45:04.775Z,15.20
2022-10-03T04:47:56.153Z,14.87
2022-10-03T04:50:57.473Z,11.70
2022-10-03T04:53:33.980Z,10.87
2022-10-03T04:56:12.833Z,13.63
2022-10-03T04:58:48.910Z,18.07
2022-10-03T05:01:34.608Z,16.20
2022-10-03T05:04:12.602Z,19.20
2022-10-03T05:06:57.111Z,16.33
2022-10-03T05:09:38.777Z,11.63
2022-10-03T05:12:45.561Z,14.00
2022-10-03T05:15:14.969Z,11.97
2022-10-03T05:18:00.142Z,15.83
2022-10-03T05:20:47.195Z,13.50
2022-10-03T05:23:32.422Z,14.00
2022-10-03T05:26:43.684Z,17.17
2022-10-03T05:29:31.481Z,13.73
2022-10-03T05:32:10.958Z,12.27
2022-10-03T05:34:49.660Z,13.47
2022-10-03T05:37:43.400Z,12.07
2022-10-03T05:40:24.613Z,13.67
2022-10-03T05:42:51.380Z,14.30
2022-10-03T05:45:49.864Z,13.57
2022-10-03T05:48:38.042Z,12.00
2022-10-03T05:51:13.498Z,13.00
2022-10-03T05:54:37.360Z,12.30
2022-10-03T05:57:31.748Z,14.60
2022-10-03T06:00:26.273Z,15.13
2022-10-03T06:03:11.024Z,14.03
2022-10-03T06:05:46.667Z,14.90
2022-10-03T06:08:26.715Z,16.73
2022-10-03T06:11:02.080Z,14.87
2022-10-03T06:13:56.032Z,15.30
2022-10-03T06:16:31.709Z,17.33
2022-10-03T06:19:25.226Z,14.90
2022-10-03T06:22:29.865Z,18.77
2022-10-03T06:25:17.911Z,17.57
2022-10-03T06:28:11.003Z,17.63
2022-10-03T06:30:40.261Z,20.27
2022-10-03T06:33:28.050Z,21.03
2022-10-03T06:36:30.707Z,23.00
2022-10-03T06:39:23.839Z,25.47
2022-10-03T06:42:04.218Z,23.93
2022-10-03T06:44:56.589Z,23.93
2022-10-03T06:47:43.390Z,28.57
2022-10-03T06:50:38.680Z,22.37
2022-10-03T06:53:11.861Z,27.50
2022-10-03T06:56:07.967Z,27.67
2022-10-03T06:59:05.617Z,27.10
2022-10-03T07:01:53.939Z,29.73
2022-10-03T07:04:26.180Z,27.57
2022-10-03T07:07:30.513Z,27.10
2022-10-03T07:10:19.001Z,32.27
2022-10-03T07:12:52.570Z,30.67
2022-10-03T07:16:14.334Z,28.70
2022-10-03T07:19:04.489Z,31.43
2022-10-03T07:21:47.250Z,29.83
2022-10-03T07:24:32.034Z,29.37
2022-10-03T07:27:17.831Z,31.90
2022-10-03T07:30:16.857Z,27.30
2022-10-03T07:33:04.965Z,27.93
2022-10-03T07:36:03.600Z,22.40
2022-10-03T07:38:49.823Z,28.20
2022-10-03T07:41:22.163Z,25.43
2022-10-03T07:44:03.989Z,25.17
2022-10-03T07:46:54.812Z,20.13
2022-10-03T07:49:48.604Z,21.67
2022-10-03T07:52:32.563Z,20.57
2022-10-03T07:55:19.561Z,21.60
2022-10-03T07:57:48.678Z,20.90
2022-10-03T08:00:24.515Z,19.43
2022-10-03T08:03:15.913Z,21.53
2022-10-03T08:05:49.657Z,20.63
2022-10-03T08:08:34.609Z,22.63
2022-10-03T08:11:01.167Z,21.03
2022-10-03T08:14:01.279Z,22.90
2022-10-03T08:16:43.189Z,21.10
2022-10-03T08:19:19.192Z,26.10
2022-10-03T08:22:15.655Z,23.60
2022-10-03T08:25:09.090Z,22.03
2022-10-03T08:27:47.112Z,23.43
2022-10-03T08:30:21.437Z,21.03
2022-10-03T08:33:25.440Z,20.57
2022-10-03T08:36:13.979Z,20.93
2022-10-03T08:39:02.312Z,19.67
2022-10-03T08:41:52.659Z,20.80
2022-10-03T08:44:30.235Z,19.37
2022-10-03T08:47:02.413Z,21.10
2022-10-03T08:49:45.452Z,18.30
2022-10-03T08:52:32.986Z,19.30
2022-10-03T08:55:27.289Z,22.50
2022-10-03T08:58:25.683Z,20.13
2022-10-03T09:01:36.388Z,19.50
2022-10-03T09:04:37.065Z,22.53
2022-10-03T09:07:20.344Z,21.47
2022-10-03T09:10:07.670Z,23.27
2022-10-03T09:13:02.533Z,20.83
2022-10-03T09:16:07.828Z,20.40
2022-10-03T09:19:19.133Z,22.20
2022-10-03T09:21:48.634Z,21.03
2022-10-03T09:24:53.007Z,19.07
2022-10-03T09:27:32.333Z,19.73
2022-10-03T09:30:23.246Z,19.43
2022-10-03T09:33:14.469Z,18.97
2022-10-03T09:36:04.405Z,17.57
2022-10-03T09:39:02.626Z,19.87
2022-10-03T09:41:39.173Z,18.13
2022-10-03T09:44:18.014Z,20.87
2022-10-03T09:47:35.427Z,22.03
2022-10-03T09:50:28.724Z,18.73
2022-10-03T09:53:02.464Z,22.37
2022-10-03T09:55:52.171Z,25.40
2022-10-03T09:58:47.743Z,22.83
2022-10-03T10:01:26.178Z,22.20
2022-10-03T10:04:54.198Z,22.17
2022-10-03T10:07:49.229Z,22.10
2022-10-03T10:10:36.857Z,22.80
2022-10-03T10:13:12.403Z,19.57
2022-10-03T10:15:47.765Z,21.57
2022-10-03T10:18:17.424Z,19.47
2022-10-03T10:21:02.404Z,21.70
2022-10-03T10:23:38.190Z,21.37
2022-10-03T10:26:35.762Z,22.90
2022-10-03T10:29:17.546Z,24.23
2022-10-03T10:32:28.639Z,21.07
2022-10-03T10:35:10.234Z,19.70
2022-10-03T10:38:03.361Z,20.00
2022-10-03T10:40:48.240Z,24.63
2022-10-03T10:43:33.814Z,22.43
2022-10-03T10:46:18.744Z,21.03
2022-10-03T10:49:22.791Z,20.30
2022-10-03T10:52:19.195Z,22.97
2022-10-03T10:55:22.272Z,19.27
2022-10-03T10:58:11.803Z,20.67
2022-10-03T11:00:41.797Z,19.47
2022-10-03T11:03:33.384Z,22.67
2022-10-03T11:06:17.230Z,17.50
2022-10-03T11:09:11.762Z,23.90
2022-10-03T11:11:59.830Z,27.93
2022-10-03T11:15:19.861Z,26.00
2022-10-03T11:18:04.642Z,21.70
2022-10-03T11:21:10.389Z,23.37
2022-10-03T11:24:14.990Z,18.07
2022-10-03T11:27:03.468Z,19.63
2022-10-03T11:29:48.099Z,19.30
2022-10-03T11:32:45.192Z,20.20
2022-10-03T11:35:49.283Z,19.33
2022-10-03T11:38:24.701Z,20.33
2022-10-03T11:40:58.159Z,19.87
2022-10-03T11:43:53.044Z,19.77
2022-10-03T11:46:46.158Z,19.23
2022-10-03T11:49:40.813Z,17.83
2022-10-03T11:52:45.042Z,20.00
2022-10-03T11:55:39.766Z,18.77
2022-10-03T11:58:56.299Z,20.40
2022-10-03T12:01:53.993Z,18.70
2022-10-03T12:04:32.019Z,23.53
2022-10-03T12:07:24.864Z,20.40
2022-10-03T12:10:03.462Z,22.57
2022-10-03T12:12:55.046Z,19.73
2022-10-03T12:15:44.895Z,19.93
2022-10-03T12:18:41.011Z,22.40
2022-10-03T12:21:21.971Z,19.97
2022-10-03T12:24:20.757Z,29.37
2022-10-03T12:27:19.087Z,26.00
2022-10-03T12:29:58.786Z,19.70
2022-10-03T12:32:44.185Z,21.33
2022-10-03T12:35:41.639Z,22.10
2022-10-03T12:38:25.428Z,22.67
2022-10-03T12:41:07.442Z,21.67
2022-10-03T12:43:56.941Z,23.17
2022-10-03T12:46:43.760Z,26.37
2022-10-03T12:49:23.023Z,24.03
2022-10-03T12:51:53.167Z,23.20
2022-10-03T12:54:25.880Z,25.73
2022-10-03T12:57:39.130Z,28.00
2022-10-03T13:00:07.762Z,22.70
2022-10-03T13:02:41.151Z,21.93
2022-10-03T13:05:31.693Z,24.03
2022-10-03T13:08:06.897Z,22.53
2022-10-03T13:10:39.282Z,24.17
2022-10-03T13:13:33.692Z,24.03
2022-10-03T13:16:13.608Z,19.83
2022-10-03T13:19:06.602Z,21.20
2022-10-03T13:22:06.450Z,18.97
2022-10-03T13:24:50.490Z,19.33
2022-10-03T13:27:22.910Z,20.33
2022-10-03T13:30:25.125Z,16.23
2022-10-03T13:33:03.262Z,17.03
2022-10-03T13:35:58.323Z,12.97
2022-10-03T13:39:03.012Z,15.33
2022-10-03T13:42:16.006Z,12.67
2022-10-03T13:44:55.586Z,12.37
2022-10-03T13:47:38.992Z,14.80
2022-10-03T13:50:15.344Z,13.33
2022-10-03T13:52:57.982Z,10.10
2022-10-03T13:55:36.846Z,11.90
2022-10-03T13:58:32.713Z,9.10
2022-10-03T14:01:24.495Z,9.03
2022-10-03T14:04:25.871Z,8.83
2022-10-03T14:07:16.323Z,13.40
2022-10-03T14:10:13.076Z,11.63
2022-10-03T14:13:10.725Z,9.87
2022-10-03T14:15:58.381Z,8.73
2022-10-03T14:18:56.312Z,7.97
2022-10-03T14:21:47.919Z,8.50
2022-10-03T14:24:42.969Z,7.50
2022-10-03T14:27:37.058Z,6.73
2022-10-03T14:30:11.261Z,6.90
2022-10-03T14:32:54.224Z,8.80
2022-10-03T14:35:39.369Z,5.60
2022-10-03T14:38:20.371Z,8.00
2022-10-03T14:40:56.385Z,6.33
2022-10-03T14:43:30.525Z,6.90
2022-10-03T14:46:02.092Z,8.27
2022-10-03T14:48:36.500Z,5.27
2022-10-03T14:51:26.467Z,6.23
2022-10-03T14:54:05.302Z,6.60
2022-10-03T14:56:44.151Z,5.53
2022-10-03T14:59:21.561Z,4.83
2022-10-03T15:01:55.034Z,5.20
2022-10-03T15:04:30.027Z,6.50
2022-10-03T15:07:00.680Z,6.73
2022-10-03T15:09:40.104Z,6.67
2022-10-03T15:12:10.185Z,5.10
2022-10-03T15:14:43.070Z,9.57
2022-10-03T15:17:43.276Z,5.87
2022-10-03T15:20:12.529Z,5.93
2022-10-03T15:22:44.299Z,6.93
2022-10-03T15:25:30.843Z,6.60
2022-10-03T15:28:03.908Z,7.13
2022-10-03T15:30:39.338Z,5.40
2022-10-03T15:33:24.647Z,7.37
2022-10-03T15:35:59.410Z,5.40
2022-10-03T15:38:37.682Z,7.83
2022-10-03T15:41:18.914Z,5.87
2022-10-03T15:43:57.106Z,5.47
2022-10-03T15:46:54.917Z,5.40
2022-10-03T15:49:40.155Z,7.73
2022-10-03T15:52:18.519Z,8.60
2022-10-03T15:55:11.156Z,6.27
2022-10-03T15:57:44.861Z,5.77
2022-10-03T16:00:33.728Z,5.53
2022-10-03T16:03:24.234Z,7.30
2022-10-03T16:06:00.742Z,8.13
2022-10-03T16:08:31.167Z,6.80
2022-10-03T16:11:16.014Z,7.43
2022-10-03T16:13:47.838Z,10.03
2022-10-03T16:16:19.982Z,9.83
2022-10-03T16:18:52.087Z,7.33
2022-10-03T16:21:45.768Z,7.10
2022-10-03T16:24:40.538Z,10.43
2022-10-03T16:27:18.940Z,12.57
2022-10-03T16:29:57.969Z,8.93
2022-10-03T16:32:28.357Z,7.37
2022-10-03T16:35:01.134Z,6.57
2022-10-03T16:37:29.950Z,8.93
2022-10-03T16:40:05.887Z,10.07
2022-10-03T16:42:44.331Z,8.30
2022-10-03T16:45:41.648Z,10.57
2022-10-03T16:49:08.119Z,11.60
2022-10-03T16:51:43.060Z,11.57
2022-10-03T16:54:15.943Z,9.40
2022-10-03T16:56:48.090Z,9.07
2022-10-03T16:59:19.522Z,8.67
2022-10-03T17:01:51.620Z,8.23
2022-10-03T17:04:25.667Z,7.33
2022-10-03T17:06:57.270Z,10.80
2022-10-03T17:09:41.702Z,12.33
2022-10-03T17:12:17.558Z,6.93
2022-10-03T17:14:45.134Z,7.07
2022-10-03T17:17:33.219Z,6.63
2022-10-03T17:20:07.059Z,10.43
2022-10-03T17:22:47.495Z,10.83
2022-10-03T17:25:17.424Z,8.40
2022-10-03T17:27:50.886Z,8.23
2022-10-03T17:30:44.080Z,12.73
2022-10-03T17:33:28.626Z,11.67
2022-10-03T17:36:20.923Z,10.50
2022-10-03T17:39:02.392Z,10.30
2022-10-03T17:41:59.548Z,11.30
2022-10-03T17:44:33.917Z,11.63
2022-10-03T17:47:23.897Z,10.30
2022-10-03T17:50:06.672Z,14.20
2022-10-03T17:52:40.982Z,11.90
2022-10-03T17:55:16.619Z,10.57
2022-10-03T17:57:52.890Z,11.33
2022-10-03T18:00:55.749Z,14.43
2022-10-03T18:03:33.864Z,9.00
2022-10-03T18:06:25.846Z,12.30
2022-10-03T18:08:53.473Z,13.37
2022-10-03T18:11:23.945Z,9.63
2022-10-03T18:14:00.117Z,9.63
2022-10-03T18:16:37.502Z,12.90
2022-10-03T18:19:26.259Z,11.03
2022-10-03T18:22:21.112Z,10.13
2022-10-03T18:25:32.114Z,9.07
2022-10-03T18:28:13.424Z,11.03
2022-10-03T18:30:56.278Z,11.63
2022-10-03T18:33:46.639Z,10.97
2022-10-03T18:36:22.539Z,9.47
2022-10-03T18:38:52.613Z,10.10
2022-10-03T18:41:19.542Z,12.10
2022-10-03T18:43:58.752Z,9.53
2022-10-03T18:46:42.695Z,8.87
2022-10-03T18:49:33.411Z,8.93
2022-10-03T18:52:19.449Z,8.80
2022-10-03T18:55:15.056Z,14.73
2022-10-03T18:57:54.324Z,11.30
2022-10-03T19:00:26.667Z,9.57
2022-10-03T19:02:58.213Z,9.17
2022-10-03T19:05:46.210Z,19.17
2022-10-03T19:08:42.322Z,13.63
2022-10-03T19:11:17.786Z,9.30
2022-10-03T19:13:56.014Z,9.90
2022-10-03T19:16:40.082Z,9.50
2022-10-03T19:19:29.079Z,7.73
2022-10-03T19:22:01.071Z,11.30
2022-10-03T19:24:53.449Z,8.70
2022-10-03T19:27:24.005Z,8.83
2022-10-03T19:29:54.326Z,7.93
2022-10-03T19:32:48.655Z,10.90
2022-10-03T19:35:21.252Z,9.33
2022-10-03T19:37:51.936Z,10.40
2022-10-03T19:40:39.557Z,9.30
2022-10-03T19:43:18.083Z,8.57
2022-10-03T19:46:03.411Z,8.63
2022-10-03T19:48:33.466Z,9.07
2022-10-03T19:51:23.935Z,7.77
2022-10-03T19:53:54.725Z,10.00
2022-10-03T19:56:25.736Z,11.70
2022-10-03T19:59:04.787Z,9.97
2022-10-03T20:01:46.240Z,13.00
2022-10-03T20:04:16.793Z,9.17
2022-10-03T20:06:48.771Z,9.60
2022-10-03T20:09:27.508Z,8.10
2022-10-03T20:12:06.568Z,7.97
2022-10-03T20:14:40.675Z,9.67
2022-10-03T20:17:24.896Z,7.47
2022-10-03T20:20:04.072Z,8.43
2022-10-03T20:22:34.287Z,8.53
2022-10-03T20:25:08.651Z,9.83
2022-10-03T20:27:46.019Z,8.60
2022-10-03T20:30:33.683Z,7.17
2022-10-03T20:33:00.625Z,8.23
2022-10-03T20:35:31.066Z,7.30
2022-10-03T20:38:20.032Z,10.57
2022-10-03T20:40:56.944Z,9.63
2022-10-03T20:43:42.352Z,8.07
2022-10-03T20:46:47.679Z,8.40
2022-10-03T20:49:40.773Z,7.60
2022-10-03T20:52:16.137Z,7.60
2022-10-03T20:54:58.483Z,7.87
2022-10-03T20:57:47.971Z,9.60
2022-10-03T21:00:14.707Z,12.80
2022-10-03T21:02:59.426Z,8.70
2022-10-03T21:05:37.707Z,11.37
2022-10-03T21:08:41.372Z,7.97
2022-10-03T21:11:10.947Z,6.90
2022-10-03T21:13:54.843Z,9.30
2022-10-03T21:16:30.841Z,8.53
2022-10-03T21:19:11.874Z,8.47
2022-10-03T21:21:50.126Z,13.03
2022-10-03T21:24:58.486Z,6.80
2022-10-03T21:27:26.470Z,6.87
2022-10-03T21:30:31.244Z,7.87
2022-10-03T21:33:11.379Z,7.57
2022-10-03T21:35:41.716Z,5.50
2022-10-03T21:38:08.314Z,6.13
2022-10-03T21:40:56.225Z,7.10
2022-10-03T21:43:57.199Z,4.40
2022-10-03T21:46:23.885Z,5.33
2022-10-03T21:48:59.614Z,4.10
2022-10-03T21:52:00.650Z,4.87
2022-10-03T21:55:05.603Z,3.53
2022-10-03T21:57:52.703Z,6.43
2022-10-03T22:00:26.481Z,6.50
2022-10-03T22:03:26.982Z,4.13
2022-10-03T22:06:17.954Z,4.23
2022-10-03T22:08:49.683Z,3.77
2022-10-03T22:11:27.908Z,3.00
2022-10-03T22:14:09.253Z,5.87
2022-10-03T22:16:46.127Z,3.30
2022-10-03T22:19:32.530Z,2.80
2022-10-03T22:22:08.495Z,4.23
2022-10-03T22:24:46.326Z,4.30
2022-10-03T22:27:20.775Z,6.03
2022-10-03T22:30:12.476Z,3.00
2022-10-03T22:32:54.331Z,3.50
2022-10-03T22:35:40.726Z,3.17
2022-10-03T22:38:08.327Z,9.10
2022-10-03T22:40:42.213Z,3.77
2022-10-03T22:43:16.257Z,2.43
2022-10-03T22:45:47.072Z,2.83
2022-10-03T22:48:21.849Z,2.93
2022-10-03T22:50:48.907Z,4.10
2022-10-03T22:53:19.518Z,2.90
2022-10-03T22:55:51.257Z,3.37
2022-10-03T22:58:20.643Z,4.83
2022-10-03T23:00:53.254Z,4.60
2022-10-03T23:03:32.582Z,4.63
2022-10-03T23:06:41.012Z,5.80
2022-10-03T23:09:18.982Z,3.70
2022-10-03T23:11:52.479Z,1.67
2022-10-03T23:14:26.123Z,3.53
2022-10-03T23:16:59.539Z,3.17
2022-10-03T23:19:50.215Z,2.50
2022-10-03T23:22:25.055Z,5.20
2022-10-03T23:25:01.155Z,6.40
2022-10-03T23:27:56.093Z,4.70
2022-10-03T23:30:25.830Z,3.10
2022-10-03T23:32:56.382Z,2.20
2022-10-03T23:35:31.985Z,1.80
2022-10-03T23:38:03.282Z,2.83
2022-10-03T23:40:38.921Z,4.47
2022-10-03T23:43:30.029Z,6.20
2022-10-03T23:46:19.856Z,2.67
2022-10-03T23:48:59.345Z,4.90
2022-10-03T23:51:34.813Z,4.80
2022-10-03T23:54:08.415Z,2.70
2022-10-03T23:56:41.370Z,2.03
2022-10-03T23:59:16.099Z,3.90
